createdAt,value
2023-02-03T00:02:14.779Z,90.90
2023-02-03T00:04:42.010Z,90.90
2023-02-03T00:07:11.587Z,90.90
2023-02-03T00:09:38.861Z,90.90
2023-02-03T00:12:06.612Z,91.00
2023-02-03T00:14:33.840Z,90.90
2023-02-03T00:17:01.056Z,91.00
2023-02-03T00:19:28.249Z,91.10
2023-02-03T00:21:56.296Z,91.20
2023-02-03T00:24:23.970Z,91.40
2023-02-03T00:26:51.175Z,91.50
2023-02-03T00:29:18.630Z,91.60
2023-02-03T00:31:46.081Z,91.60
2023-02-03T00:34:13.427Z,91.60
2023-02-03T00:36:42.898Z,91.50
2023-02-03T00:39:10.262Z,91.50
2023-02-03T00:41:37.475Z,91.60
2023-02-03T00:44:04.822Z,91.50
2023-02-03T00:46:32.022Z,91.60
2023-02-03T00:48:59.224Z,91.60
2023-02-03T00:51:26.405Z,91.60
2023-02-03T00:53:55.969Z,91.70
2023-02-03T00:56:23.549Z,91.50
2023-02-03T00:58:50.803Z,91.60
2023-02-03T01:01:18.294Z,91.70
2023-02-03T01:03:45.556Z,91.70
2023-02-03T01:06:16.142Z,91.90
2023-02-03T01:08:44.314Z,91.80
2023-02-03T01:11:17.659Z,91.80
2023-02-03T01:13:46.296Z,91.80
2023-02-03T01:16:15.866Z,91.90
2023-02-03T01:18:43.911Z,92.00
2023-02-03T01:21:17.729Z,92.00
2023-02-03T01:23:45.639Z,92.00
2023-02-03T01:26:15.662Z,92.10
2023-02-03T01:28:42.948Z,92.00
2023-02-03T01:31:19.171Z,92.00
2023-02-03T01:33:48.460Z,92.00
2023-02-03T01:36:20.695Z,91.90
2023-02-03T01:38:48.148Z,92.00
2023-02-03T01:41:18.651Z,92.10
2023-02-03T01:43:49.455Z,92.20
2023-02-03T01:46:50.647Z,92.40
2023-02-03T01:49:24.870Z,92.50
2023-02-03T01:51:53.448Z,92.50
2023-02-03T01:54:29.022Z,92.50
2023-02-03T01:57:03.163Z,92.50
2023-02-03T01:59:33.855Z,92.50
2023-02-03T02:02:02.810Z,92.50
2023-02-03T02:04:37.228Z,92.50
2023-02-03T02:07:06.239Z,92.50
2023-02-03T02:09:34.156Z,92.60
2023-02-03T02:12:01.347Z,92.60
2023-02-03T02:14:29.031Z,92.70
2023-02-03T02:17:12.841Z,92.80
2023-02-03T02:20:06.737Z,92.80
2023-02-03T02:23:03.616Z,92.80
2023-02-03T02:25:30.738Z,92.70
2023-02-03T02:28:19.432Z,92.80
2023-02-03T02:30:58.989Z,93.00
2023-02-03T02:33:36.515Z,93.10
2023-02-03T02:36:28.765Z,93.10
2023-02-03T02:39:29.176Z,93.00
2023-02-03T02:42:01.627Z,92.70
2023-02-03T02:44:38.935Z,92.60
2023-02-03T02:47:20.007Z,92.40
2023-02-03T02:50:19.745Z,92.10
2023-02-03T02:52:48.232Z,91.80
2023-02-03T02:55:20.480Z,91.60
2023-02-03T02:57:49.117Z,91.60
2023-02-03T03:00:19.792Z,91.50
2023-02-03T03:02:47.290Z,91.40
2023-02-03T03:05:17.712Z,91.20
2023-02-03T03:07:55.900Z,91.00
2023-02-03T03:10:29.154Z,90.80
2023-02-03T03:13:02.118Z,90.80
2023-02-03T03:15:32.092Z,90.90
2023-02-03T03:18:13.418Z,90.90
2023-02-03T03:20:44.213Z,90.90
2023-02-03T03:23:18.329Z,90.90
2023-02-03T03:25:54.059Z,90.70
2023-02-03T03:28:28.053Z,90.80
2023-02-03T03:30:55.429Z,90.80
2023-02-03T03:33:23.415Z,90.90
2023-02-03T03:35:57.058Z,90.80
2023-02-03T03:38:46.063Z,90.80
2023-02-03T03:41:28.617Z,90.60
2023-02-03T03:43:59.188Z,90.50
2023-02-03T03:46:30.937Z,90.30
2023-02-03T03:49:02.632Z,90.20
2023-02-03T03:51:49.182Z,89.80
2023-02-03T03:54:20.471Z,89.60
2023-02-03T03:56:58.205Z,89.40
2023-02-03T03:59:34.351Z,89.30
2023-02-03T04:02:04.574Z,89.30
2023-02-03T04:04:37.708Z,89.10
2023-02-03T04:07:04.994Z,89.00
2023-02-03T04:09:32.395Z,88.80
2023-02-03T04:12:02.311Z,88.50
2023-02-03T04:14:31.629Z,88.40
2023-02-03T04:16:58.846Z,88.20
2023-02-03T04:19:26.523Z,88.20
2023-02-03T04:21:53.746Z,88.20
2023-02-03T04:24:21.001Z,88.10
2023-02-03T04:26:48.242Z,88.10
2023-02-03T04:29:18.581Z,87.90
2023-02-03T04:31:47.871Z,88.00
2023-02-03T04:34:15.032Z,87.60
2023-02-03T04:36:42.144Z,87.50
2023-02-03T04:39:09.355Z,87.00
2023-02-03T04:41:36.568Z,86.70
2023-02-03T04:44:03.886Z,86.40
2023-02-03T04:46:31.072Z,86.00
2023-02-03T04:48:58.300Z,85.50
2023-02-03T04:51:25.509Z,85.40
2023-02-03T04:53:52.703Z,85.30
2023-02-03T04:56:23.459Z,85.60
2023-02-03T04:58:50.665Z,85.80
2023-02-03T05:01:17.922Z,85.50
2023-02-03T05:03:47.056Z,85.50
2023-02-03T05:06:14.586Z,85.30
2023-02-03T05:08:42.961Z,85.20
2023-02-03T05:11:11.401Z,85.30
2023-02-03T05:13:40.635Z,85.30
2023-02-03T05:16:09.363Z,85.10
2023-02-03T05:18:36.636Z,85.00
2023-02-03T05:21:04.063Z,84.80
2023-02-03T05:23:31.319Z,84.30
2023-02-03T05:26:00.413Z,84.20
2023-02-03T05:28:29.897Z,84.20
2023-02-03T05:31:01.820Z,84.00
2023-02-03T05:33:29.328Z,84.20
2023-02-03T05:35:57.068Z,83.70
2023-02-03T05:38:25.012Z,83.40
2023-02-03T05:41:11.478Z,83.50
2023-02-03T05:43:44.747Z,83.10
2023-02-03T05:46:12.143Z,83.20
2023-02-03T05:48:39.410Z,83.40
2023-02-03T05:51:06.642Z,83.40
2023-02-03T05:53:33.836Z,83.20
2023-02-03T05:56:01.066Z,83.00
2023-02-03T05:58:28.573Z,83.30
2023-02-03T06:00:55.819Z,83.30
2023-02-03T06:03:23.148Z,83.30
2023-02-03T06:05:50.474Z,83.00
2023-02-03T06:08:17.795Z,83.40
2023-02-03T06:10:45.228Z,83.00
2023-02-03T06:13:14.675Z,83.00
2023-02-03T06:15:42.269Z,83.50
2023-02-03T06:18:09.725Z,83.40
2023-02-03T06:20:37.087Z,83.20
2023-02-03T06:23:05.409Z,83.10
2023-02-03T06:25:34.060Z,83.00
2023-02-03T06:28:02.501Z,83.10
2023-02-03T06:30:31.109Z,82.90
2023-02-03T06:33:00.671Z,82.60
2023-02-03T06:35:28.303Z,82.50
2023-02-03T06:37:55.521Z,82.60
2023-02-03T06:40:22.910Z,82.10
2023-02-03T06:42:51.130Z,82.10
2023-02-03T06:45:19.119Z,81.90
2023-02-03T06:47:48.371Z,82.10
2023-02-03T06:50:16.089Z,82.00
2023-02-03T06:52:43.639Z,81.40
2023-02-03T06:55:11.130Z,81.20
2023-02-03T06:57:46.697Z,81.50
2023-02-03T07:00:25.997Z,81.20
2023-02-03T07:02:58.127Z,81.00
2023-02-03T07:05:27.841Z,80.50
2023-02-03T07:07:55.116Z,80.90
2023-02-03T07:10:22.587Z,80.80
2023-02-03T07:12:51.860Z,80.90
2023-02-03T07:15:19.168Z,80.80
2023-02-03T07:17:54.276Z,80.90
2023-02-03T07:20:22.632Z,80.80
2023-02-03T07:22:54.627Z,80.60
2023-02-03T07:25:22.467Z,80.60
2023-02-03T07:27:49.780Z,80.50
2023-02-03T07:30:17.361Z,80.90
2023-02-03T07:32:49.627Z,81.00
2023-02-03T07:35:17.024Z,80.80
2023-02-03T07:37:44.842Z,80.80
2023-02-03T07:40:13.267Z,81.00
2023-02-03T07:42:43.057Z,81.10
2023-02-03T07:45:11.535Z,81.40
2023-02-03T07:47:39.197Z,81.50
2023-02-03T07:50:06.683Z,81.80
2023-02-03T07:52:34.951Z,81.40
2023-02-03T07:55:02.274Z,81.70
2023-02-03T07:57:29.542Z,81.70
2023-02-03T07:59:56.905Z,81.90
2023-02-03T08:02:24.155Z,81.70
2023-02-03T08:04:51.413Z,81.80
2023-02-03T08:07:18.634Z,81.90
2023-02-03T08:09:45.824Z,82.00
2023-02-03T08:12:13.014Z,82.10
2023-02-03T08:14:40.239Z,82.30
2023-02-03T08:17:07.574Z,82.30
2023-02-03T08:19:35.264Z,82.60
2023-02-03T08:22:02.465Z,83.20
2023-02-03T08:24:32.816Z,83.40
2023-02-03T08:27:01.113Z,83.90
2023-02-03T08:29:28.466Z,83.90
2023-02-03T08:31:58.631Z,83.70
2023-02-03T08:34:25.897Z,84.00
2023-02-03T08:36:53.096Z,84.20
2023-02-03T08:39:20.334Z,84.10
2023-02-03T08:41:47.564Z,84.20
2023-02-03T08:44:14.809Z,84.50
2023-02-03T08:46:44.156Z,84.30
2023-02-03T08:49:11.663Z,84.10
2023-02-03T08:51:38.780Z,83.80
2023-02-03T08:54:06.084Z,83.80
2023-02-03T08:56:34.141Z,83.80
2023-02-03T08:59:01.525Z,83.80
2023-02-03T09:01:29.040Z,83.90
2023-02-03T09:03:56.343Z,84.50
2023-02-03T09:06:26.342Z,84.80
2023-02-03T09:08:53.568Z,84.90
2023-02-03T09:11:20.795Z,85.20
2023-02-03T09:13:57.958Z,85.80
2023-02-03T09:16:25.921Z,86.10
2023-02-03T09:18:53.143Z,86.10
2023-02-03T09:21:33.232Z,86.00
2023-02-03T09:24:10.731Z,86.10
2023-02-03T09:26:38.962Z,86.20
2023-02-03T09:29:07.225Z,86.40
2023-02-03T09:31:37.648Z,85.80
2023-02-03T09:34:04.835Z,85.60
2023-02-03T09:36:32.038Z,85.20
2023-02-03T09:38:59.312Z,84.90
2023-02-03T09:41:54.843Z,84.30
2023-02-03T09:44:40.577Z,84.20
2023-02-03T09:47:22.869Z,84.40
2023-02-03T09:50:23.922Z,84.40
2023-02-03T09:52:52.256Z,84.60
2023-02-03T09:55:47.081Z,84.70
2023-02-03T09:59:05.085Z,84.90
2023-02-03T10:01:55.438Z,85.00
2023-02-03T10:04:39.932Z,85.00
2023-02-03T10:07:18.239Z,85.20
2023-02-03T10:10:07.937Z,85.80
2023-02-03T10:12:53.970Z,86.80
2023-02-03T10:15:46.423Z,87.30
2023-02-03T10:18:18.849Z,87.50
2023-02-03T10:20:50.097Z,87.60
2023-02-03T10:23:43.995Z,87.10
2023-02-03T10:26:16.872Z,86.90
2023-02-03T10:29:06.710Z,86.70
2023-02-03T10:31:38.931Z,86.20
2023-02-03T10:34:12.066Z,86.20
2023-02-03T10:36:46.207Z,85.60
2023-02-03T10:39:29.308Z,85.00
2023-02-03T10:42:04.155Z,84.50
2023-02-03T10:44:48.666Z,85.10
2023-02-03T10:47:34.849Z,85.70
2023-02-03T10:50:07.395Z,85.80
2023-02-03T10:52:36.958Z,85.70
2023-02-03T10:55:30.063Z,85.80
2023-02-03T10:57:58.243Z,84.80
2023-02-03T11:00:36.969Z,83.60
2023-02-03T11:03:26.448Z,83.60
2023-02-03T11:06:26.958Z,83.50
2023-02-03T11:08:54.890Z,83.00
2023-02-03T11:11:28.648Z,82.90
2023-02-03T11:14:03.948Z,83.40
2023-02-03T11:16:34.043Z,84.10
2023-02-03T11:19:21.584Z,85.00
2023-02-03T11:21:53.917Z,84.30
2023-02-03T11:24:24.749Z,83.90
2023-02-03T11:27:06.900Z,83.00
2023-02-03T11:29:40.685Z,81.50
2023-02-03T11:32:36.638Z,82.80
2023-02-03T11:35:27.078Z,83.30
2023-02-03T11:37:56.584Z,80.90
2023-02-03T11:40:29.439Z,80.20
2023-02-03T11:42:56.810Z,80.80
2023-02-03T11:45:45.665Z,79.80
2023-02-03T11:48:39.601Z,78.90
2023-02-03T11:51:15.914Z,77.50
2023-02-03T11:53:57.488Z,76.40
2023-02-03T11:56:41.609Z,76.20
2023-02-03T11:59:21.477Z,75.70
2023-02-03T12:02:26.535Z,75.60
2023-02-03T12:05:17.994Z,74.60
2023-02-03T12:08:35.524Z,73.40
2023-02-03T12:11:34.705Z,73.70
2023-02-03T12:14:27.625Z,74.00
2023-02-03T12:17:07.066Z,73.40
2023-02-03T12:20:12.678Z,72.80
2023-02-03T12:23:10.418Z,73.00
2023-02-03T12:26:25.241Z,72.90
2023-02-03T12:29:04.633Z,72.80
2023-02-03T12:32:07.872Z,73.40
2023-02-03T12:34:44.901Z,72.80
2023-02-03T12:37:19.709Z,73.60
2023-02-03T12:39:52.360Z,73.20
2023-02-03T12:42:31.121Z,73.00
2023-02-03T12:45:36.521Z,73.10
2023-02-03T12:48:55.112Z,72.10
2023-02-03T12:51:39.185Z,73.60
2023-02-03T12:54:40.791Z,73.10
2023-02-03T12:57:14.386Z,73.10
2023-02-03T12:59:43.883Z,73.70
2023-02-03T13:02:21.856Z,73.30
2023-02-03T13:05:07.075Z,73.30
2023-02-03T13:07:53.794Z,74.00
2023-02-03T13:10:40.058Z,72.70
2023-02-03T13:13:13.313Z,73.00
2023-02-03T13:15:45.616Z,72.70
2023-02-03T13:18:33.714Z,72.60
2023-02-03T13:21:01.261Z,71.90
2023-02-03T13:23:29.671Z,72.30
2023-02-03T13:26:31.878Z,71.20
2023-02-03T13:29:20.880Z,71.00
2023-02-03T13:32:14.338Z,71.00
2023-02-03T13:34:47.669Z,69.50
2023-02-03T13:37:38.659Z,69.10
2023-02-03T13:40:31.777Z,68.50
2023-02-03T13:43:06.029Z,69.10
2023-02-03T13:45:41.296Z,67.90
2023-02-03T13:48:17.751Z,68.10
2023-02-03T13:50:47.615Z,66.30
2023-02-03T13:53:21.266Z,67.30
2023-02-03T13:55:59.160Z,66.20
2023-02-03T13:58:31.974Z,67.10
2023-02-03T14:01:03.030Z,69.40
2023-02-03T14:03:30.349Z,65.40
2023-02-03T14:05:59.345Z,67.10
2023-02-03T14:08:27.585Z,67.30
2023-02-03T14:11:32.573Z,65.90
2023-02-03T14:14:22.576Z,65.80
2023-02-03T14:16:54.718Z,66.40
2023-02-03T14:19:22.186Z,66.20
2023-02-03T14:21:55.014Z,66.00
2023-02-03T14:24:23.276Z,66.40
2023-02-03T14:26:57.082Z,67.00
2023-02-03T14:29:32.129Z,68.20
2023-02-03T14:32:00.548Z,68.40
2023-02-03T14:34:35.544Z,67.60
2023-02-03T14:37:25.417Z,68.80
2023-02-03T14:40:23.578Z,67.80
2023-02-03T14:43:11.487Z,67.50
2023-02-03T14:46:21.882Z,67.20
2023-02-03T14:49:17.784Z,63.20
2023-02-03T14:52:03.097Z,61.60
2023-02-03T14:54:46.466Z,63.20
2023-02-03T14:57:43.988Z,63.90
2023-02-03T15:00:20.659Z,63.20
2023-02-03T15:03:07.475Z,65.00
2023-02-03T15:05:38.591Z,65.50
2023-02-03T15:08:41.967Z,65.90
2023-02-03T15:11:25.628Z,66.50
2023-02-03T15:13:54.226Z,66.40
2023-02-03T15:16:24.118Z,66.60
2023-02-03T15:19:00.567Z,66.60
2023-02-03T15:21:31.980Z,66.10
2023-02-03T15:23:59.401Z,67.10
2023-02-03T15:26:27.305Z,66.80
2023-02-03T15:29:02.571Z,67.10
2023-02-03T15:31:42.350Z,65.60
2023-02-03T15:34:19.486Z,66.00
2023-02-03T15:36:51.016Z,65.30
2023-02-03T15:39:48.031Z,65.50
2023-02-03T15:42:31.534Z,65.70
2023-02-03T15:45:30.420Z,65.20
2023-02-03T15:48:36.696Z,65.80
2023-02-03T15:51:11.516Z,65.20
2023-02-03T15:53:51.325Z,64.80
2023-02-03T15:56:23.284Z,65.20
2023-02-03T15:58:50.642Z,64.50
2023-02-03T16:01:23.619Z,65.20
2023-02-03T16:03:56.597Z,64.90
2023-02-03T16:06:27.414Z,64.20
2023-02-03T16:08:56.106Z,64.00
2023-02-03T16:11:26.141Z,63.40
2023-02-03T16:13:57.196Z,63.60
2023-02-03T16:16:34.251Z,63.70
2023-02-03T16:19:21.119Z,64.60
2023-02-03T16:21:48.285Z,64.40
2023-02-03T16:24:42.476Z,63.60
2023-02-03T16:27:27.928Z,63.90
2023-02-03T16:30:39.355Z,64.10
2023-02-03T16:33:28.163Z,64.90
2023-02-03T16:36:15.024Z,63.70
2023-02-03T16:39:05.521Z,64.50
2023-02-03T16:41:51.456Z,64.60
2023-02-03T16:44:37.927Z,64.40
2023-02-03T16:47:42.251Z,64.10
2023-02-03T16:50:38.692Z,64.20
2023-02-03T16:53:12.591Z,63.80
2023-02-03T16:55:40.308Z,63.50
2023-02-03T16:58:12.490Z,63.10
2023-02-03T17:00:41.948Z,63.30
2023-02-03T17:03:17.967Z,63.00
2023-02-03T17:05:49.417Z,63.30
2023-02-03T17:08:21.848Z,63.90
2023-02-03T17:10:51.047Z,64.60
2023-02-03T17:13:21.059Z,65.50
2023-02-03T17:15:52.674Z,65.90
2023-02-03T17:18:20.566Z,66.20
2023-02-03T17:20:47.893Z,66.00
2023-02-03T17:23:16.739Z,66.20
2023-02-03T17:25:47.914Z,65.80
2023-02-03T17:28:15.856Z,65.00
2023-02-03T17:30:43.379Z,65.20
2023-02-03T17:33:13.917Z,65.80
2023-02-03T17:35:43.542Z,64.60
2023-02-03T17:38:12.959Z,65.20
2023-02-03T17:54:34.957Z,66.80
2023-02-03T17:57:02.217Z,66.50
2023-02-03T17:59:29.499Z,66.40
2023-02-03T18:01:56.707Z,67.20
2023-02-03T18:04:23.951Z,68.60
2023-02-03T18:06:53.370Z,70.70
2023-02-03T18:09:20.756Z,73.30
2023-02-03T18:11:49.157Z,74.40
2023-02-03T18:14:17.944Z,76.30
2023-02-03T18:16:48.121Z,77.50
2023-02-03T18:19:15.881Z,78.80
2023-02-03T18:21:43.618Z,79.00
2023-02-03T18:24:12.908Z,78.90
2023-02-03T18:26:51.755Z,79.00
2023-02-03T18:29:19.515Z,77.90
2023-02-03T18:31:47.979Z,78.60
2023-02-03T18:34:17.107Z,78.60
2023-02-03T18:36:44.748Z,78.70
2023-02-03T18:39:14.267Z,78.60
2023-02-03T18:41:41.627Z,78.70
2023-02-03T18:44:09.132Z,78.10
2023-02-03T18:46:36.354Z,77.90
2023-02-03T18:49:03.882Z,78.10
2023-02-03T18:51:31.084Z,77.60
2023-02-03T18:54:06.467Z,77.30
2023-02-03T18:56:38.932Z,77.50
2023-02-03T18:59:11.511Z,77.30
2023-02-03T19:01:39.217Z,76.90
2023-02-03T19:04:06.737Z,77.30
2023-02-03T19:06:35.030Z,77.80
2023-02-03T19:09:03.891Z,77.90
2023-02-03T19:11:58.860Z,77.70
2023-02-03T19:14:30.372Z,77.80
2023-02-03T19:16:57.591Z,77.90
2023-02-03T19:19:24.869Z,77.40
2023-02-03T19:21:52.239Z,77.60
2023-02-03T19:24:20.039Z,77.80
2023-02-03T19:26:49.267Z,77.80
2023-02-03T19:29:16.746Z,77.70
2023-02-03T19:32:09.720Z,78.20
2023-02-03T19:34:37.003Z,78.30
2023-02-03T19:37:04.584Z,78.70
2023-02-03T19:39:32.359Z,78.50
2023-02-03T19:42:01.566Z,78.70
2023-02-03T19:44:33.848Z,78.90
2023-02-03T19:47:02.302Z,79.30
2023-02-03T19:49:29.930Z,79.60
2023-02-03T19:51:57.113Z,79.90
2023-02-03T19:54:24.321Z,80.00
2023-02-03T19:57:16.918Z,80.20
2023-02-03T20:00:02.933Z,80.10
2023-02-03T20:02:45.072Z,80.00
2023-02-03T20:05:12.399Z,80.30
2023-02-03T20:07:43.017Z,80.10
2023-02-03T20:10:10.844Z,79.70
2023-02-03T20:12:38.069Z,79.90
2023-02-03T20:15:05.778Z,80.00
2023-02-03T20:17:32.991Z,80.20
2023-02-03T20:20:00.355Z,80.20
2023-02-03T20:22:27.594Z,80.20
2023-02-03T20:24:54.784Z,80.10
2023-02-03T20:27:21.982Z,80.30
2023-02-03T20:29:50.607Z,80.40
2023-02-03T20:32:18.891Z,80.40
2023-02-03T20:34:46.249Z,80.70
2023-02-03T20:37:13.447Z,80.60
2023-02-03T20:39:40.811Z,81.10
2023-02-03T20:42:17.324Z,81.10
2023-02-03T20:44:45.717Z,81.40
2023-02-03T20:47:17.127Z,81.60
2023-02-03T20:49:45.100Z,81.60
2023-02-03T20:52:17.600Z,82.20
2023-02-03T20:54:45.238Z,82.80
2023-02-03T20:57:17.866Z,83.10
2023-02-03T20:59:45.935Z,83.50
2023-02-03T21:02:23.843Z,83.70
2023-02-03T21:05:00.588Z,84.20
2023-02-03T21:07:30.677Z,84.10
2023-02-03T21:09:59.858Z,84.20
2023-02-03T21:12:28.464Z,84.30
2023-02-03T21:14:55.707Z,84.60
2023-02-03T21:17:25.796Z,84.70
2023-02-03T21:19:54.714Z,84.60
2023-02-03T21:22:27.449Z,84.80
2023-02-03T21:24:59.148Z,85.00
2023-02-03T21:27:32.135Z,85.10
2023-02-03T21:30:22.490Z,85.30
2023-02-03T21:32:49.711Z,85.30
2023-02-03T21:35:43.594Z,85.40
2023-02-03T21:38:31.232Z,85.50
2023-02-03T21:41:01.111Z,85.70
2023-02-03T21:43:33.008Z,85.70
2023-02-03T21:46:01.690Z,85.90
2023-02-03T21:48:32.126Z,85.90
2023-02-03T21:51:15.316Z,86.00
2023-02-03T21:53:48.408Z,86.00
2023-02-03T21:56:21.345Z,86.10
2023-02-03T21:58:50.788Z,85.80
2023-02-03T22:01:18.753Z,85.70
2023-02-03T22:03:56.215Z,85.80
2023-02-03T22:06:27.568Z,85.30
2023-02-03T22:08:57.918Z,84.70
2023-02-03T22:11:31.280Z,84.30
2023-02-03T22:14:00.822Z,83.60
2023-02-03T22:16:29.378Z,83.30
2023-02-03T22:18:57.012Z,82.90
2023-02-03T22:21:25.105Z,82.90
2023-02-03T22:23:52.462Z,82.90
2023-02-03T22:26:20.135Z,83.10
2023-02-03T22:28:47.365Z,83.50
2023-02-03T22:31:15.040Z,83.40
2023-02-03T22:33:43.117Z,83.80
2023-02-03T22:36:10.819Z,84.10
2023-02-03T22:38:40.055Z,84.20
2023-02-03T22:41:08.803Z,84.30
2023-02-03T22:43:36.048Z,84.20
2023-02-03T22:46:06.159Z,84.40
2023-02-03T22:48:34.569Z,84.50
2023-02-03T22:51:02.123Z,84.80
2023-02-03T22:53:29.801Z,84.80
2023-02-03T22:55:57.149Z,84.70
2023-02-03T22:58:24.480Z,84.40
2023-02-03T23:00:51.720Z,84.40
2023-02-03T23:03:20.201Z,85.00
2023-02-03T23:05:47.451Z,85.70
2023-02-03T23:08:14.661Z,81.80
2023-02-03T23:10:41.910Z,82.90
2023-02-03T23:13:09.304Z,83.80
2023-02-03T23:15:36.822Z,84.30
2023-02-03T23:18:04.339Z,84.60
2023-02-03T23:20:31.938Z,84.70
2023-02-03T23:22:59.321Z,85.10
2023-02-03T23:25:26.637Z,85.20
2023-02-03T23:27:53.898Z,85.40
2023-02-03T23:30:21.229Z,85.10
2023-02-03T23:32:48.487Z,84.80
2023-02-03T23:35:34.344Z,84.30
2023-02-03T23:38:01.546Z,83.90
2023-02-03T23:40:29.315Z,83.60
2023-02-03T23:42:56.786Z,83.30
2023-02-03T23:45:23.971Z,82.50
2023-02-03T23:47:51.197Z,82.80
2023-02-03T23:50:21.389Z,82.60
2023-02-03T23:52:48.757Z,82.40
2023-02-03T23:55:19.185Z,81.90
2023-02-03T23:57:46.635Z,81.90
